createdAt,value
2018-09-14T00:00:39.424Z,79.48
2018-09-14T00:03:08.318Z,79.35
2018-09-14T00:05:36.983Z,79.00
2018-09-14T00:08:05.665Z,79.39
2018-09-14T00:10:34.357Z,80.06
2018-09-14T00:13:03.053Z,80.58
2018-09-14T00:15:31.780Z,80.94
2018-09-14T00:18:00.433Z,81.31
2018-09-14T00:20:29.103Z,80.86
2018-09-14T00:22:57.764Z,81.97
2018-09-14T00:25:26.449Z,81.15
2018-09-14T00:27:55.152Z,81.65
2018-09-14T00:30:23.863Z,81.92
2018-09-14T00:32:52.622Z,82.06
2018-09-14T00:35:21.303Z,82.33
2018-09-14T00:37:50.671Z,82.76
2018-09-14T00:40:19.530Z,83.04
2018-09-14T00:42:48.252Z,83.10
2018-09-14T00:45:16.903Z,83.29
2018-09-14T00:47:45.640Z,83.56
2018-09-14T00:50:14.344Z,83.82
2018-09-14T00:52:43.251Z,83.63
2018-09-14T00:55:11.960Z,84.21
2018-09-14T00:57:40.644Z,84.58
2018-09-14T01:00:09.340Z,84.91
2018-09-14T01:02:38.006Z,84.55
2018-09-14T01:05:06.788Z,84.89
2018-09-14T01:07:36.105Z,84.72
2018-09-14T01:10:05.899Z,84.53
2018-09-14T01:12:34.687Z,84.76
2018-09-14T01:15:03.387Z,84.82
2018-09-14T01:17:32.082Z,84.98
2018-09-14T01:20:00.794Z,85.34
2018-09-14T01:22:29.441Z,85.75
2018-09-14T01:24:58.123Z,85.67
2018-09-14T01:27:26.819Z,85.18
2018-09-14T01:29:55.534Z,85.49
2018-09-14T01:32:24.225Z,85.40
2018-09-14T01:34:52.907Z,85.55
2018-09-14T01:37:21.577Z,85.95
2018-09-14T01:39:50.323Z,85.92
2018-09-14T01:42:19.012Z,85.75
2018-09-14T01:44:47.724Z,86.03
2018-09-14T01:47:16.395Z,86.31
2018-09-14T01:49:45.365Z,86.43
2018-09-14T01:52:14.048Z,85.98
2018-09-14T01:54:42.779Z,86.42
2018-09-14T01:57:11.424Z,86.58
2018-09-14T01:59:40.156Z,86.26
2018-09-14T02:02:08.842Z,86.40
2018-09-14T02:04:37.521Z,86.23
2018-09-14T02:07:06.184Z,85.88
2018-09-14T02:09:35.040Z,85.91
2018-09-14T02:12:03.700Z,85.82
2018-09-14T02:14:32.339Z,85.69
2018-09-14T02:17:01.055Z,86.04
2018-09-14T02:19:29.743Z,86.17
2018-09-14T02:21:58.399Z,86.45
2018-09-14T02:24:27.843Z,86.40
2018-09-14T02:26:56.591Z,86.55
2018-09-14T02:29:25.353Z,86.29
2018-09-14T02:31:54.133Z,85.92
2018-09-14T02:34:22.816Z,85.13
2018-09-14T02:36:51.529Z,84.89
2018-09-14T02:39:20.177Z,85.05
2018-09-14T02:41:48.843Z,85.82
2018-09-14T02:44:17.563Z,85.56
2018-09-14T02:46:46.240Z,85.87
2018-09-14T02:49:14.965Z,85.40
2018-09-14T02:51:43.651Z,85.23
2018-09-14T02:54:12.341Z,85.19
2018-09-14T02:56:41.108Z,85.24
2018-09-14T02:59:09.830Z,85.27
2018-09-14T03:01:39.351Z,85.46
2018-09-14T03:04:08.124Z,85.49
2018-09-14T03:06:36.883Z,86.21
2018-09-14T03:09:07.643Z,85.92
2018-09-14T03:11:36.739Z,86.04
2018-09-14T03:14:05.806Z,85.72
2018-09-14T03:16:34.840Z,85.33
2018-09-14T03:19:03.661Z,85.11
2018-09-14T03:21:32.306Z,85.58
2018-09-14T03:24:01.031Z,85.86
2018-09-14T03:26:29.723Z,86.35
2018-09-14T03:28:58.372Z,86.78
2018-09-14T03:31:27.049Z,86.40
2018-09-14T03:33:55.708Z,85.79
2018-09-14T03:36:24.360Z,85.43
2018-09-14T03:38:53.056Z,85.53
2018-09-14T03:41:21.842Z,84.66
2018-09-14T03:43:50.512Z,84.78
2018-09-14T03:46:19.208Z,84.70
2018-09-14T03:48:47.871Z,84.70
2018-09-14T03:51:23.139Z,84.50
2018-09-14T03:53:51.818Z,84.84
2018-09-14T03:56:20.661Z,85.15
2018-09-14T03:58:49.450Z,85.60
2018-09-14T04:01:18.123Z,86.13
2018-09-14T04:03:46.833Z,86.07
2018-09-14T04:06:16.256Z,86.08
2018-09-14T04:08:44.926Z,86.03
2018-09-14T04:11:13.611Z,86.19
2018-09-14T04:13:42.319Z,86.42
2018-09-14T04:16:10.968Z,86.88
2018-09-14T04:18:39.640Z,87.30
2018-09-14T04:21:08.326Z,87.49
2018-09-14T04:23:37.171Z,87.61
2018-09-14T04:26:05.736Z,87.81
2018-09-14T04:28:34.408Z,88.00
2018-09-14T04:31:03.283Z,87.76
2018-09-14T04:33:31.963Z,88.01
2018-09-14T04:36:00.629Z,88.16
2018-09-14T04:38:29.390Z,87.85
2018-09-14T04:40:58.866Z,87.90
2018-09-14T04:43:27.608Z,88.10
2018-09-14T04:45:56.292Z,88.28
2018-09-14T04:48:25.077Z,88.97
2018-09-14T04:50:54.031Z,88.91
2018-09-14T04:53:22.778Z,89.55
2018-09-14T04:55:51.432Z,89.78
2018-09-14T04:58:20.158Z,90.07
2018-09-14T05:00:48.816Z,89.93
2018-09-14T05:03:17.660Z,89.68
2018-09-14T05:05:46.327Z,89.91
2018-09-14T05:08:15.042Z,90.01
2018-09-14T05:10:44.627Z,90.61
2018-09-14T05:13:13.400Z,91.02
2018-09-14T05:15:43.204Z,90.90
2018-09-14T05:18:13.032Z,90.85
2018-09-14T05:20:41.716Z,90.92
2018-09-14T05:23:10.457Z,91.11
2018-09-14T05:25:39.132Z,90.85
2018-09-14T05:28:07.813Z,90.73
2018-09-14T05:30:36.687Z,90.72
2018-09-14T05:33:05.443Z,90.49
2018-09-14T05:35:34.131Z,89.97
2018-09-14T05:38:02.827Z,90.16
2018-09-14T05:40:31.508Z,90.03
2018-09-14T05:43:00.216Z,89.91
2018-09-14T05:45:28.897Z,89.75
2018-09-14T05:47:57.645Z,89.26
2018-09-14T05:50:26.461Z,88.97
2018-09-14T05:52:55.140Z,88.04
2018-09-14T05:55:23.838Z,86.98
2018-09-14T05:57:52.562Z,86.82
2018-09-14T06:00:21.236Z,86.46
2018-09-14T06:02:50.576Z,85.71
2018-09-14T06:05:19.416Z,85.17
2018-09-14T06:07:48.153Z,84.98
2018-09-14T06:10:16.919Z,84.74
2018-09-14T06:12:45.576Z,86.01
2018-09-14T06:15:14.889Z,82.67
2018-09-14T06:17:43.560Z,81.76
2018-09-14T06:20:12.316Z,81.68
2018-09-14T06:22:41.023Z,80.90
2018-09-14T06:25:09.685Z,79.92
2018-09-14T06:27:38.425Z,79.47
2018-09-14T06:30:07.368Z,79.06
2018-09-14T06:32:36.047Z,77.68
2018-09-14T06:35:04.741Z,76.94
2018-09-14T06:37:34.105Z,75.91
2018-09-14T06:40:03.831Z,75.24
2018-09-14T06:42:33.611Z,74.50
2018-09-14T06:45:02.344Z,73.50
2018-09-14T06:47:30.959Z,72.34
2018-09-14T06:49:59.619Z,72.44
2018-09-14T06:52:28.398Z,71.39
2018-09-14T06:54:57.072Z,70.96
2018-09-14T06:57:25.784Z,69.91
2018-09-14T06:59:54.454Z,69.25
2018-09-14T07:02:23.153Z,68.49
2018-09-14T07:04:51.867Z,67.06
2018-09-14T07:07:20.646Z,67.00
2018-09-14T07:09:49.355Z,66.93
2018-09-14T07:12:18.076Z,65.70
2018-09-14T07:14:46.878Z,64.58
2018-09-14T07:17:15.559Z,64.01
2018-09-14T07:19:44.329Z,63.97
2018-09-14T07:22:13.062Z,62.77
2018-09-14T07:24:41.850Z,61.85
2018-09-14T07:27:10.678Z,60.64
2018-09-14T07:29:39.377Z,59.55
2018-09-14T07:32:08.066Z,59.26
2018-09-14T07:34:36.793Z,58.65
2018-09-14T07:37:05.766Z,58.33
2018-09-14T07:39:34.460Z,57.74
2018-09-14T07:42:03.168Z,57.63
2018-09-14T07:44:31.885Z,56.44
2018-09-14T07:47:00.539Z,56.62
2018-09-14T07:49:29.279Z,55.79
2018-09-14T07:51:58.083Z,55.34
2018-09-14T07:54:26.736Z,55.18
2018-09-14T07:56:55.415Z,54.05
2018-09-14T07:59:24.106Z,53.17
2018-09-14T08:01:52.803Z,52.25
2018-09-14T08:04:21.534Z,52.80
2018-09-14T08:06:50.205Z,52.13
2018-09-14T08:09:18.868Z,53.79
2018-09-14T08:11:47.564Z,52.59
2018-09-14T08:14:16.376Z,53.28
2018-09-14T08:16:46.005Z,50.58
2018-09-14T08:19:14.815Z,50.93
2018-09-14T08:21:43.587Z,50.64
2018-09-14T08:24:12.279Z,49.90
2018-09-14T08:26:41.039Z,49.19
2018-09-14T08:29:09.657Z,48.66
2018-09-14T08:31:38.394Z,50.74
2018-09-14T08:34:07.148Z,50.00
2018-09-14T08:36:35.851Z,49.01
2018-09-14T08:39:08.008Z,50.70
2018-09-14T08:41:36.891Z,48.87
2018-09-14T08:44:05.718Z,50.42
2018-09-14T08:46:34.431Z,48.29
2018-09-14T08:49:03.625Z,46.37
2018-09-14T08:51:33.033Z,46.54
2018-09-14T08:54:01.956Z,43.95
2018-09-14T08:56:30.665Z,42.27
2018-09-14T08:58:59.389Z,41.51
2018-09-14T09:01:28.096Z,40.65
2018-09-14T09:03:56.727Z,43.11
2018-09-14T09:06:25.409Z,41.85
2018-09-14T09:08:54.101Z,37.93
2018-09-14T09:11:22.858Z,40.08
2018-09-14T09:13:51.497Z,39.83
2018-09-14T09:16:20.196Z,38.22
2018-09-14T09:18:48.849Z,36.98
2018-09-14T09:21:17.524Z,35.59
2018-09-14T09:23:46.113Z,35.80
2018-09-14T09:26:14.832Z,32.32
2018-09-14T09:28:43.481Z,33.76
2018-09-14T09:31:12.139Z,34.96
2018-09-14T09:33:40.785Z,36.13
2018-09-14T09:36:09.485Z,34.88
2018-09-14T09:38:38.123Z,35.43
2018-09-14T09:41:07.283Z,33.65
2018-09-14T09:43:36.371Z,33.51
2018-09-14T09:46:04.880Z,32.68
2018-09-14T09:48:33.572Z,31.04
2018-09-14T09:51:02.336Z,29.96
2018-09-14T09:53:30.951Z,30.42
2018-09-14T09:55:59.647Z,32.55
2018-09-14T09:58:28.307Z,33.12
2018-09-14T10:01:02.373Z,31.47
2018-09-14T10:03:36.326Z,33.46
2018-09-14T10:06:10.189Z,31.65
2018-09-14T10:08:38.900Z,33.30
2018-09-14T10:11:07.659Z,32.03
2018-09-14T10:13:36.312Z,30.82
2018-09-14T10:16:04.972Z,30.65
2018-09-14T10:18:33.636Z,28.28
2018-09-14T10:21:02.438Z,30.61
2018-09-14T10:23:31.018Z,31.59
2018-09-14T10:25:59.709Z,29.35
2018-09-14T10:28:28.407Z,28.44
2018-09-14T10:30:57.132Z,27.04
2018-09-14T10:33:25.819Z,26.39
2018-09-14T10:35:54.517Z,26.01
2018-09-14T10:38:23.190Z,25.66
2018-09-14T10:40:52.039Z,26.91
2018-09-14T10:43:20.628Z,27.13
2018-09-14T10:45:49.374Z,26.34
2018-09-14T10:48:18.128Z,26.26
2018-09-14T10:50:46.884Z,25.74
2018-09-14T10:53:15.588Z,26.46
2018-09-14T10:55:44.289Z,26.64
2018-09-14T10:58:12.984Z,28.77
2018-09-14T11:00:41.720Z,27.19
2018-09-14T11:03:10.340Z,26.99
2018-09-14T11:05:39.049Z,25.54
2018-09-14T11:08:07.802Z,27.60
2018-09-14T11:10:36.520Z,26.86
2018-09-14T11:13:05.250Z,26.98
2018-09-14T11:15:33.942Z,26.61
2018-09-14T11:18:02.661Z,27.84
2018-09-14T11:20:31.655Z,26.83
2018-09-14T11:23:00.267Z,25.45
2018-09-14T11:25:28.960Z,26.07
2018-09-14T11:27:57.640Z,27.11
2018-09-14T11:30:26.206Z,29.31
2018-09-14T11:32:54.881Z,29.83
2018-09-14T11:35:23.539Z,31.51
2018-09-14T11:37:52.320Z,33.67
2018-09-14T11:40:20.913Z,33.45
2018-09-14T11:42:49.692Z,33.97
2018-09-14T11:45:18.486Z,31.64
2018-09-14T11:47:47.087Z,32.72
2018-09-14T11:50:15.820Z,33.65
2018-09-14T11:52:44.582Z,33.78
2018-09-14T11:55:13.231Z,33.19
2018-09-14T11:57:41.908Z,35.29
2018-09-14T12:00:10.596Z,35.84
2018-09-14T12:02:39.324Z,33.59
2018-09-14T12:05:08.204Z,32.54
2018-09-14T12:07:38.908Z,34.04
2018-09-14T12:10:08.467Z,32.72
2018-09-14T12:12:37.166Z,31.35
2018-09-14T12:15:05.857Z,31.46
2018-09-14T12:17:34.528Z,32.09
2018-09-14T12:20:03.217Z,33.46
2018-09-14T12:22:31.872Z,34.09
2018-09-14T12:25:00.525Z,35.00
2018-09-14T12:27:29.219Z,34.18
2018-09-14T12:29:57.872Z,33.96
2018-09-14T12:32:26.538Z,32.24
2018-09-14T12:34:55.191Z,31.04
2018-09-14T12:37:23.882Z,30.50
2018-09-14T12:39:52.557Z,29.23
2018-09-14T12:42:21.320Z,28.91
2018-09-14T12:44:49.996Z,29.51
2018-09-14T12:47:18.658Z,30.85
2018-09-14T12:49:47.418Z,31.43
2018-09-14T12:52:16.123Z,32.36
2018-09-14T12:54:44.819Z,33.44
2018-09-14T12:57:13.501Z,34.36
2018-09-14T12:59:42.195Z,35.08
2018-09-14T13:02:10.896Z,34.13
2018-09-14T13:04:39.613Z,33.57
2018-09-14T13:07:08.279Z,34.10
2018-09-14T13:09:37.391Z,34.19
2018-09-14T13:12:06.249Z,34.84
2018-09-14T13:14:35.002Z,34.49
2018-09-14T13:17:03.629Z,33.83
2018-09-14T13:19:32.278Z,35.08
2018-09-14T13:22:00.964Z,33.55
2018-09-14T13:24:29.651Z,34.16
2018-09-14T13:26:58.308Z,31.83
2018-09-14T13:29:26.939Z,32.58
2018-09-14T13:31:55.604Z,32.43
2018-09-14T13:34:24.256Z,33.14
2018-09-14T13:36:52.979Z,33.64
2018-09-14T13:39:21.665Z,33.74
2018-09-14T13:41:50.317Z,33.24
2018-09-14T13:44:19.164Z,32.82
2018-09-14T13:46:47.947Z,33.69
2018-09-14T13:49:16.635Z,31.84
2018-09-14T13:51:45.306Z,31.37
2018-09-14T13:54:14.016Z,33.41
2018-09-14T13:56:42.678Z,34.17
2018-09-14T13:59:11.453Z,34.45
2018-09-14T14:01:40.302Z,34.32
2018-09-14T14:04:08.978Z,33.44
2018-09-14T14:06:37.768Z,33.94
2018-09-14T14:09:09.024Z,32.86
2018-09-14T14:11:37.752Z,32.56
2018-09-14T14:14:06.569Z,33.37
2018-09-14T14:16:35.322Z,32.88
2018-09-14T14:19:03.908Z,32.39
2018-09-14T14:21:32.768Z,34.49
2018-09-14T14:24:01.495Z,33.82
2018-09-14T14:26:30.263Z,33.67
2018-09-14T14:28:58.966Z,33.81
2018-09-14T14:31:27.656Z,33.86
2018-09-14T14:33:56.295Z,33.62
2018-09-14T14:36:24.967Z,34.32
2018-09-14T14:38:53.747Z,34.41
2018-09-14T14:41:22.493Z,34.38
2018-09-14T14:43:51.140Z,34.43
2018-09-14T14:46:19.760Z,35.52
2018-09-14T14:48:48.427Z,35.90
2018-09-14T14:51:17.108Z,36.64
2018-09-14T14:53:45.887Z,37.32
2018-09-14T14:56:14.545Z,36.98
2018-09-14T14:58:43.295Z,37.34
2018-09-14T15:01:11.966Z,37.67
2018-09-14T15:03:40.639Z,38.79
2018-09-14T15:06:09.294Z,38.64
2018-09-14T15:08:37.971Z,38.97
2018-09-14T15:11:06.643Z,39.47
2018-09-14T15:13:35.409Z,40.28
2018-09-14T15:16:04.046Z,40.44
2018-09-14T15:18:32.744Z,41.41
2018-09-14T15:21:01.386Z,41.15
2018-09-14T15:23:30.091Z,41.63
2018-09-14T15:25:58.707Z,41.57
2018-09-14T15:28:27.342Z,41.67
2018-09-14T15:30:56.081Z,42.18
2018-09-14T15:33:24.772Z,42.24
2018-09-14T15:35:53.473Z,42.47
2018-09-14T15:38:22.160Z,42.37
2018-09-14T15:40:50.815Z,42.64
2018-09-14T15:43:19.468Z,42.50
2018-09-14T15:45:48.119Z,42.65
2018-09-14T15:48:16.787Z,42.97
2018-09-14T15:50:45.435Z,43.15
2018-09-14T15:53:14.077Z,42.95
2018-09-14T15:55:42.756Z,43.45
2018-09-14T15:58:11.611Z,43.71
2018-09-14T16:00:40.279Z,43.61
2018-09-14T16:03:08.954Z,43.89
2018-09-14T16:05:37.659Z,43.45
2018-09-14T16:08:06.509Z,43.84
2018-09-14T16:10:35.270Z,44.15
2018-09-14T16:13:04.001Z,44.52
2018-09-14T16:15:32.701Z,45.07
2018-09-14T16:18:01.410Z,44.65
2018-09-14T16:20:30.116Z,44.67
2018-09-14T16:22:58.743Z,44.75
2018-09-14T16:25:27.491Z,45.01
2018-09-14T16:27:56.195Z,45.26
2018-09-14T16:30:24.888Z,45.19
2018-09-14T16:32:53.571Z,45.55
2018-09-14T16:35:22.249Z,45.71
2018-09-14T16:37:50.918Z,46.03
2018-09-14T16:40:19.580Z,46.38
2018-09-14T16:42:48.279Z,46.75
2018-09-14T16:45:16.891Z,47.35
2018-09-14T16:47:45.552Z,47.97
2018-09-14T16:50:14.335Z,47.69
2018-09-14T16:52:43.011Z,47.42
2018-09-14T16:55:11.680Z,47.57
2018-09-14T16:57:40.377Z,47.84
2018-09-14T17:00:09.367Z,47.42
2018-09-14T17:02:38.194Z,47.53
2018-09-14T17:05:07.137Z,47.72
2018-09-14T17:07:35.846Z,48.19
2018-09-14T17:10:04.947Z,47.65
2018-09-14T17:12:33.828Z,47.58
2018-09-14T17:15:02.626Z,47.93
2018-09-14T17:17:31.318Z,48.45
2018-09-14T17:20:00.018Z,48.74
2018-09-14T17:22:28.767Z,48.93
2018-09-14T17:24:57.608Z,49.03
2018-09-14T17:27:26.344Z,48.96
2018-09-14T17:29:55.702Z,49.00
2018-09-14T17:32:24.468Z,49.15
2018-09-14T17:34:53.202Z,49.62
2018-09-14T17:37:22.225Z,50.10
2018-09-14T17:39:50.934Z,49.63
2018-09-14T17:42:20.509Z,49.23
2018-09-14T17:44:49.247Z,50.38
2018-09-14T17:47:17.943Z,50.99
2018-09-14T17:49:46.745Z,50.93
2018-09-14T17:52:15.418Z,51.59
2018-09-14T17:54:44.106Z,51.35
2018-09-14T17:57:12.992Z,52.81
2018-09-14T17:59:41.705Z,50.58
2018-09-14T18:02:10.801Z,51.39
2018-09-14T18:07:50.048Z,50.78
2018-09-14T18:10:19.166Z,51.06
2018-09-14T18:12:48.319Z,51.21
2018-09-14T18:15:17.141Z,51.63
2018-09-14T18:17:46.115Z,50.58
2018-09-14T18:20:14.929Z,50.51
2018-09-14T18:22:43.776Z,52.14
2018-09-14T18:25:13.181Z,51.91
2018-09-14T18:27:42.064Z,52.84
2018-09-14T18:30:10.852Z,52.80
2018-09-14T18:32:39.929Z,52.21
2018-09-14T18:35:08.898Z,52.14
2018-09-14T18:37:37.735Z,52.78
2018-09-14T18:40:06.676Z,53.97
2018-09-14T18:42:36.040Z,53.78
2018-09-14T18:45:06.231Z,53.80
2018-09-14T18:47:35.090Z,53.98
2018-09-14T18:50:04.092Z,54.06
2018-09-14T18:52:33.195Z,54.01
2018-09-14T18:55:02.072Z,54.56
2018-09-14T18:57:30.850Z,54.88
2018-09-14T19:00:00.166Z,55.38
2018-09-14T19:02:28.900Z,55.65
2018-09-14T19:04:58.032Z,55.86
2018-09-14T19:07:27.136Z,55.43
2018-09-14T19:09:55.907Z,55.42
2018-09-14T19:12:24.796Z,55.95
2018-09-14T19:14:53.540Z,56.66
2018-09-14T19:17:22.374Z,57.35
2018-09-14T19:19:51.863Z,57.62
2018-09-14T19:22:20.804Z,57.98
2018-09-14T19:24:49.677Z,58.00
2018-09-14T19:27:18.417Z,58.30
2018-09-14T19:29:47.193Z,58.21
2018-09-14T19:32:15.938Z,58.69
2018-09-14T19:34:44.678Z,58.90
2018-09-14T19:37:13.505Z,58.96
2018-09-14T19:39:42.695Z,58.67
2018-09-14T19:42:11.528Z,58.47
2018-09-14T19:44:40.271Z,58.37
2018-09-14T19:47:09.149Z,58.54
2018-09-14T19:49:37.901Z,58.24
2018-09-14T19:52:06.760Z,58.24
2018-09-14T19:54:35.509Z,58.12
2018-09-14T19:57:04.363Z,58.50
2018-09-14T19:59:33.313Z,57.69
2018-09-14T20:02:02.101Z,58.43
2018-09-14T20:04:30.881Z,57.71
2018-09-14T20:07:00.557Z,58.40
2018-09-14T20:09:29.279Z,58.53
2018-09-14T20:11:57.972Z,58.82
2018-09-14T20:14:26.704Z,59.31
2018-09-14T20:16:55.684Z,59.74
2018-09-14T20:19:24.642Z,59.65
2018-09-14T20:21:53.358Z,60.03
2018-09-14T20:24:23.104Z,60.01
2018-09-14T20:26:51.828Z,60.37
2018-09-14T20:29:20.584Z,60.91
2018-09-14T20:31:49.368Z,61.62
2018-09-14T20:34:18.161Z,61.97
2018-09-14T20:36:46.981Z,62.34
2018-09-14T20:39:15.944Z,62.20
2018-09-14T20:41:44.722Z,61.97
2018-09-14T20:44:13.553Z,62.09
2018-09-14T20:46:42.300Z,62.81
2018-09-14T20:49:11.228Z,63.54
2018-09-14T20:51:40.116Z,64.32
2018-09-14T20:54:08.895Z,64.40
2018-09-14T20:56:37.616Z,64.53
2018-09-14T20:59:06.639Z,65.02
2018-09-14T21:01:35.531Z,65.38
2018-09-14T21:04:04.333Z,65.38
2018-09-14T21:06:33.097Z,65.35
2018-09-14T21:09:02.150Z,65.85
2018-09-14T21:11:30.883Z,66.03
2018-09-14T21:13:59.727Z,65.70
2018-09-14T21:16:28.460Z,64.93
2018-09-14T21:18:57.159Z,64.64
2018-09-14T21:21:25.902Z,65.33
2018-09-14T21:23:54.781Z,65.23
2018-09-14T21:26:23.574Z,64.34
2018-09-14T21:28:52.384Z,65.19
2018-09-14T21:31:21.197Z,65.96
2018-09-14T21:33:49.939Z,66.36
2018-09-14T21:36:19.541Z,66.10
2018-09-14T21:38:48.494Z,65.29
2018-09-14T21:41:17.259Z,64.99
2018-09-14T21:43:48.554Z,65.58
2018-09-14T21:46:18.538Z,65.83
2018-09-14T21:48:47.321Z,66.62
2018-09-14T21:51:16.112Z,67.14
2018-09-14T21:53:44.974Z,66.90
2018-09-14T21:56:13.691Z,66.61
2018-09-14T21:58:44.460Z,66.81
2018-09-14T22:01:15.298Z,67.39
2018-09-14T22:03:45.416Z,68.02
2018-09-14T22:06:14.247Z,67.65
2018-09-14T22:08:43.154Z,69.47
2018-09-14T22:11:11.950Z,69.45
2018-09-14T22:13:40.848Z,69.89
2018-09-14T22:16:09.654Z,70.18
2018-09-14T22:18:38.380Z,70.19
2018-09-14T22:21:07.441Z,70.83
2018-09-14T22:23:36.343Z,71.37
2018-09-14T22:26:05.333Z,71.73
2018-09-14T22:28:34.297Z,72.44
2018-09-14T22:31:03.113Z,72.67
2018-09-14T22:33:32.169Z,72.92
2018-09-14T22:36:01.125Z,72.53
2018-09-14T22:38:29.861Z,72.58
2018-09-14T22:40:59.368Z,72.53
2018-09-14T22:43:28.179Z,72.37
2018-09-14T22:45:57.138Z,73.34
2018-09-14T22:48:25.936Z,73.30
2018-09-14T22:50:55.862Z,73.65
2018-09-14T22:53:24.750Z,73.67
2018-09-14T22:55:53.807Z,73.51
2018-09-14T22:58:22.641Z,73.63
2018-09-14T23:00:56.851Z,73.88
2018-09-14T23:03:25.577Z,73.95
2018-09-14T23:05:54.454Z,73.99
2018-09-14T23:08:23.634Z,74.22
2018-09-14T23:10:52.504Z,74.52
2018-09-14T23:13:21.328Z,74.70
2018-09-14T23:15:57.194Z,74.30
2018-09-14T23:18:26.263Z,74.43
2018-09-14T23:20:55.017Z,74.37
2018-09-14T23:23:24.038Z,74.55
2018-09-14T23:25:55.586Z,74.46
2018-09-14T23:28:24.721Z,74.75
2018-09-14T23:30:53.480Z,74.33
2018-09-14T23:33:22.185Z,74.27
2018-09-14T23:35:51.678Z,74.65
2018-09-14T23:38:20.451Z,74.39
2018-09-14T23:40:50.197Z,74.78
2018-09-14T23:43:18.993Z,74.69
2018-09-14T23:45:47.752Z,74.67
2018-09-14T23:48:22.012Z,74.94
2018-09-14T23:50:51.085Z,75.47
2018-09-14T23:53:19.881Z,75.26
2018-09-14T23:55:48.791Z,74.76
2018-09-14T23:58:17.650Z,74.58
